West Elizabeth, Pennsylvania
Current Conditions -  °F | °C
As of 1:53 PM on Sunday 21 Dec 2014 (Local Time) from KAGC Reporting Station
Haze Haze  
Wind Chill: 32°   Ceiling: 2400
Heat Index: 32°   Visibility: 6mi
Dew Point: 19°   Wind: 3mph
Humidity: 59%   Direction: NA
Pressure: 30.24"   Gusts: NA
Location:  40.27°N, 79.9°W
Report Text: KAGC 211853Z VRB03KT 6SM HZ OVC024 00/M07 A3024 RMK AO2 SLP261 T00001072
Loading
Personal Weather Stations






























Interactive Weather Map New forecast layout! Learn more

10-Day Weather Forecast

Advertisements
Track Severe Weather on mobile